sensor_id;sensor_type;location;lat;lon;timestamp;temperature;humidity
14924;DHT22;7554;43.600;1.480;2023-05-10T00:01:41;13.10;1.00
14924;DHT22;7554;43.600;1.480;2023-05-10T00:04:10;13.10;1.00
14924;DHT22;7554;43.600;1.480;2023-05-10T00:06:37;13.10;1.00
14924;DHT22;7554;43.600;1.480;2023-05-10T00:09:04;13.00;1.00
14924;DHT22;7554;43.600;1.480;2023-05-10T00:11:32;13.00;1.00
14924;DHT22;7554;43.600;1.480;2023-05-10T00:13:59;13.00;1.00
14924;DHT22;7554;43.600;1.480;2023-05-10T00:16:26;13.00;1.00
14924;DHT22;7554;43.600;1.480;2023-05-10T00:18:54;13.00;1.00
14924;DHT22;7554;43.600;1.480;2023-05-10T00:21:22;12.90;1.00
14924;DHT22;7554;43.600;1.480;2023-05-10T00:23:50;13.00;1.00
14924;DHT22;7554;43.600;1.480;2023-05-10T00:26:17;12.90;1.00
14924;DHT22;7554;43.600;1.480;2023-05-10T00:28:44;12.90;1.00
14924;DHT22;7554;43.600;1.480;2023-05-10T00:31:12;12.80;1.00
14924;DHT22;7554;43.600;1.480;2023-05-10T00:33:40;12.90;1.00
14924;DHT22;7554;43.600;1.480;2023-05-10T00:36:07;12.90;1.00
14924;DHT22;7554;43.600;1.480;2023-05-10T00:38:36;12.80;1.00
14924;DHT22;7554;43.600;1.480;2023-05-10T00:41:04;12.90;1.00
14924;DHT22;7554;43.600;1.480;2023-05-10T00:43:31;12.90;1.00
14924;DHT22;7554;43.600;1.480;2023-05-10T00:45:58;12.80;1.00
14924;DHT22;7554;43.600;1.480;2023-05-10T00:48:26;12.90;1.00
14924;DHT22;7554;43.600;1.480;2023-05-10T00:50:53;12.90;1.00
14924;DHT22;7554;43.600;1.480;2023-05-10T00:53:21;12.80;1.00
14924;DHT22;7554;43.600;1.480;2023-05-10T00:55:50;12.80;1.00
14924;DHT22;7554;43.600;1.480;2023-05-10T00:58:17;12.80;1.00
14924;DHT22;7554;43.600;1.480;2023-05-10T01:00:46;12.70;1.00
14924;DHT22;7554;43.600;1.480;2023-05-10T01:03:14;12.70;1.00
14924;DHT22;7554;43.600;1.480;2023-05-10T01:05:42;12.70;1.00
14924;DHT22;7554;43.600;1.480;2023-05-10T01:08:10;12.70;1.00
14924;DHT22;7554;43.600;1.480;2023-05-10T01:10:37;12.80;1.00
14924;DHT22;7554;43.600;1.480;2023-05-10T01:13:06;12.90;1.00
14924;DHT22;7554;43.600;1.480;2023-05-10T01:15:34;12.90;1.00
14924;DHT22;7554;43.600;1.480;2023-05-10T01:18:02;12.90;1.00
14924;DHT22;7554;43.600;1.480;2023-05-10T01:20:37;12.90;1.00
14924;DHT22;7554;43.600;1.480;2023-05-10T01:23:31;12.90;1.00
14924;DHT22;7554;43.600;1.480;2023-05-10T01:26:14;12.80;1.00
14924;DHT22;7554;43.600;1.480;2023-05-10T01:29:13;12.80;1.00
14924;DHT22;7554;43.600;1.480;2023-05-10T01:32:17;12.70;1.00
14924;DHT22;7554;43.600;1.480;2023-05-10T01:34:54;12.70;1.00
14924;DHT22;7554;43.600;1.480;2023-05-10T01:37:29;12.60;1.00
14924;DHT22;7554;43.600;1.480;2023-05-10T01:40:03;12.60;1.00
14924;DHT22;7554;43.600;1.480;2023-05-10T01:42:38;12.50;1.00
14924;DHT22;7554;43.600;1.480;2023-05-10T01:45:14;12.50;1.00
14924;DHT22;7554;43.600;1.480;2023-05-10T01:47:47;12.50;1.00
14924;DHT22;7554;43.600;1.480;2023-05-10T01:50:20;12.40;1.00
14924;DHT22;7554;43.600;1.480;2023-05-10T01:52:53;12.40;1.00
14924;DHT22;7554;43.600;1.480;2023-05-10T01:55:24;12.40;1.00
14924;DHT22;7554;43.600;1.480;2023-05-10T01:57:58;12.40;1.00
14924;DHT22;7554;43.600;1.480;2023-05-10T02:00:28;12.40;1.00
14924;DHT22;7554;43.600;1.480;2023-05-10T02:03:00;12.40;1.00
14924;DHT22;7554;43.600;1.480;2023-05-10T02:05:29;12.40;1.00
14924;DHT22;7554;43.600;1.480;2023-05-10T02:07:59;12.50;1.00
14924;DHT22;7554;43.600;1.480;2023-05-10T02:10:28;12.50;1.00
14924;DHT22;7554;43.600;1.480;2023-05-10T02:12:58;12.60;1.00
14924;DHT22;7554;43.600;1.480;2023-05-10T02:15:27;12.60;1.00
14924;DHT22;7554;43.600;1.480;2023-05-10T02:17:58;12.70;1.00
14924;DHT22;7554;43.600;1.480;2023-05-10T02:20:27;12.80;1.00
14924;DHT22;7554;43.600;1.480;2023-05-10T02:22:56;12.80;1.00
14924;DHT22;7554;43.600;1.480;2023-05-10T02:25:25;12.80;1.00
14924;DHT22;7554;43.600;1.480;2023-05-10T02:27:56;12.80;1.00
14924;DHT22;7554;43.600;1.480;2023-05-10T02:30:24;12.70;1.00
14924;DHT22;7554;43.600;1.480;2023-05-10T02:32:52;12.70;1.00
14924;DHT22;7554;43.600;1.480;2023-05-10T02:35:22;12.70;1.00
14924;DHT22;7554;43.600;1.480;2023-05-10T02:37:50;12.70;1.00
14924;DHT22;7554;43.600;1.480;2023-05-10T02:40:18;12.70;1.00
14924;DHT22;7554;43.600;1.480;2023-05-10T02:42:47;12.60;1.00
14924;DHT22;7554;43.600;1.480;2023-05-10T02:45:19;12.70;1.00
14924;DHT22;7554;43.600;1.480;2023-05-10T02:47:47;12.80;1.00
14924;DHT22;7554;43.600;1.480;2023-05-10T02:50:15;12.80;1.00
14924;DHT22;7554;43.600;1.480;2023-05-10T02:52:47;12.90;1.00
14924;DHT22;7554;43.600;1.480;2023-05-10T02:55:15;13.00;1.00
14924;DHT22;7554;43.600;1.480;2023-05-10T02:57:48;13.00;1.00
14924;DHT22;7554;43.600;1.480;2023-05-10T03:00:18;13.00;1.00
14924;DHT22;7554;43.600;1.480;2023-05-10T03:02:45;13.10;1.00
14924;DHT22;7554;43.600;1.480;2023-05-10T03:05:13;13.10;1.00
14924;DHT22;7554;43.600;1.480;2023-05-10T03:07:40;13.10;1.00
14924;DHT22;7554;43.600;1.480;2023-05-10T03:10:09;13.10;1.00
14924;DHT22;7554;43.600;1.480;2023-05-10T03:12:54;12.70;1.00
14924;DHT22;7554;43.600;1.480;2023-05-10T03:15:30;12.70;5.40
14924;DHT22;7554;43.600;1.480;2023-05-10T03:18:04;12.50;1.00
14924;DHT22;7554;43.600;1.480;2023-05-10T03:20:36;12.40;1.00
14924;DHT22;7554;43.600;1.480;2023-05-10T03:23:11;12.40;1.00
14924;DHT22;7554;43.600;1.480;2023-05-10T03:25:41;12.30;99.90
14924;DHT22;7554;43.600;1.480;2023-05-10T03:28:11;12.30;99.90
14924;DHT22;7554;43.600;1.480;2023-05-10T03:30:39;12.30;1.00
14924;DHT22;7554;43.600;1.480;2023-05-10T03:33:07;12.30;99.90
14924;DHT22;7554;43.600;1.480;2023-05-10T03:35:35;12.20;1.00
14924;DHT22;7554;43.600;1.480;2023-05-10T03:38:02;12.10;99.90
14924;DHT22;7554;43.600;1.480;2023-05-10T03:40:29;12.00;1.00
14924;DHT22;7554;43.600;1.480;2023-05-10T03:42:59;11.90;1.00
14924;DHT22;7554;43.600;1.480;2023-05-10T03:45:26;12.00;99.90
14924;DHT22;7554;43.600;1.480;2023-05-10T03:47:53;11.90;99.90
14924;DHT22;7554;43.600;1.480;2023-05-10T03:50:22;11.90;1.00
14924;DHT22;7554;43.600;1.480;2023-05-10T03:52:49;11.80;99.90
14924;DHT22;7554;43.600;1.480;2023-05-10T03:55:16;12.00;99.90
14924;DHT22;7554;43.600;1.480;2023-05-10T03:57:44;12.00;1.00
14924;DHT22;7554;43.600;1.480;2023-05-10T04:00:14;11.90;1.00
14924;DHT22;7554;43.600;1.480;2023-05-10T04:02:41;12.00;23.90
14924;DHT22;7554;43.600;1.480;2023-05-10T04:05:09;12.00;99.90
14924;DHT22;7554;43.600;1.480;2023-05-10T04:07:36;12.00;99.90
14924;DHT22;7554;43.600;1.480;2023-05-10T04:10:04;12.00;1.00
14924;DHT22;7554;43.600;1.480;2023-05-10T04:12:32;12.00;1.00
14924;DHT22;7554;43.600;1.480;2023-05-10T04:14:59;12.10;1.00
14924;DHT22;7554;43.600;1.480;2023-05-10T04:17:28;12.00;1.00
14924;DHT22;7554;43.600;1.480;2023-05-10T04:19:56;12.00;1.00
14924;DHT22;7554;43.600;1.480;2023-05-10T04:22:23;11.90;1.00
14924;DHT22;7554;43.600;1.480;2023-05-10T04:24:50;11.90;1.00
14924;DHT22;7554;43.600;1.480;2023-05-10T04:27:18;11.90;1.00
14924;DHT22;7554;43.600;1.480;2023-05-10T04:29:45;11.80;1.00
14924;DHT22;7554;43.600;1.480;2023-05-10T04:32:12;12.00;1.00
14924;DHT22;7554;43.600;1.480;2023-05-10T04:34:43;12.00;1.00
14924;DHT22;7554;43.600;1.480;2023-05-10T04:37:10;12.00;1.00
14924;DHT22;7554;43.600;1.480;2023-05-10T04:39:38;12.00;1.00
14924;DHT22;7554;43.600;1.480;2023-05-10T04:42:05;12.00;1.00
14924;DHT22;7554;43.600;1.480;2023-05-10T04:44:32;11.90;99.90
14924;DHT22;7554;43.600;1.480;2023-05-10T04:47:00;11.90;94.70
14924;DHT22;7554;43.600;1.480;2023-05-10T04:49:28;11.90;1.00
14924;DHT22;7554;43.600;1.480;2023-05-10T04:51:56;12.00;1.00
14924;DHT22;7554;43.600;1.480;2023-05-10T04:54:24;12.10;1.00
14924;DHT22;7554;43.600;1.480;2023-05-10T04:56:51;12.10;1.00
14924;DHT22;7554;43.600;1.480;2023-05-10T04:59:18;12.00;99.90
14924;DHT22;7554;43.600;1.480;2023-05-10T05:01:46;12.10;99.90
14924;DHT22;7554;43.600;1.480;2023-05-10T05:04:13;12.10;99.90
14924;DHT22;7554;43.600;1.480;2023-05-10T05:06:41;12.10;99.90
14924;DHT22;7554;43.600;1.480;2023-05-10T05:09:10;12.00;99.90
14924;DHT22;7554;43.600;1.480;2023-05-10T05:11:37;12.00;1.00
14924;DHT22;7554;43.600;1.480;2023-05-10T05:14:06;11.90;99.90
14924;DHT22;7554;43.600;1.480;2023-05-10T05:16:33;12.00;1.00
14924;DHT22;7554;43.600;1.480;2023-05-10T05:19:00;12.10;1.00
14924;DHT22;7554;43.600;1.480;2023-05-10T05:21:28;12.20;99.90
14924;DHT22;7554;43.600;1.480;2023-05-10T05:23:55;12.70;1.00
14924;DHT22;7554;43.600;1.480;2023-05-10T05:26:24;13.70;1.00
14924;DHT22;7554;43.600;1.480;2023-05-10T05:28:51;13.50;1.00
14924;DHT22;7554;43.600;1.480;2023-05-10T05:31:20;13.80;1.00
14924;DHT22;7554;43.600;1.480;2023-05-10T05:33:47;14.00;1.00
14924;DHT22;7554;43.600;1.480;2023-05-10T05:36:14;14.10;4.30
14924;DHT22;7554;43.600;1.480;2023-05-10T05:38:42;14.70;1.00
14924;DHT22;7554;43.600;1.480;2023-05-10T05:41:09;16.20;1.00
14924;DHT22;7554;43.600;1.480;2023-05-10T05:43:38;17.00;1.00
14924;DHT22;7554;43.600;1.480;2023-05-10T05:46:05;18.00;99.90
14924;DHT22;7554;43.600;1.480;2023-05-10T05:48:33;19.00;99.90
14924;DHT22;7554;43.600;1.480;2023-05-10T05:51:00;19.10;26.20
14924;DHT22;7554;43.600;1.480;2023-05-10T05:53:27;18.50;1.00
14924;DHT22;7554;43.600;1.480;2023-05-10T05:55:55;17.20;1.00
14924;DHT22;7554;43.600;1.480;2023-05-10T05:58:23;17.30;1.00
14924;DHT22;7554;43.600;1.480;2023-05-10T06:00:53;18.60;1.00
14924;DHT22;7554;43.600;1.480;2023-05-10T06:03:20;17.20;1.00
14924;DHT22;7554;43.600;1.480;2023-05-10T06:05:48;16.30;1.00
14924;DHT22;7554;43.600;1.480;2023-05-10T06:08:15;15.50;1.00
14924;DHT22;7554;43.600;1.480;2023-05-10T06:10:42;14.80;1.00
14924;DHT22;7554;43.600;1.480;2023-05-10T06:13:10;14.50;1.00
14924;DHT22;7554;43.600;1.480;2023-05-10T06:15:37;14.00;1.00
14924;DHT22;7554;43.600;1.480;2023-05-10T06:18:06;13.80;1.00
14924;DHT22;7554;43.600;1.480;2023-05-10T06:20:33;13.50;1.00
14924;DHT22;7554;43.600;1.480;2023-05-10T06:23:01;13.60;29.70
14924;DHT22;7554;43.600;1.480;2023-05-10T06:25:28;13.70;46.00
14924;DHT22;7554;43.600;1.480;2023-05-10T06:27:56;13.80;54.20
14924;DHT22;7554;43.600;1.480;2023-05-10T06:30:24;14.10;51.40
14924;DHT22;7554;43.600;1.480;2023-05-10T06:32:54;14.20;41.40
14924;DHT22;7554;43.600;1.480;2023-05-10T06:35:23;14.30;26.00
14924;DHT22;7554;43.600;1.480;2023-05-10T06:37:50;14.20;1.00
14924;DHT22;7554;43.600;1.480;2023-05-10T06:40:18;14.60;1.00
14924;DHT22;7554;43.600;1.480;2023-05-10T06:42:46;15.70;1.00
14924;DHT22;7554;43.600;1.480;2023-05-10T06:45:13;17.20;1.00
14924;DHT22;7554;43.600;1.480;2023-05-10T06:47:41;17.50;1.00
14924;DHT22;7554;43.600;1.480;2023-05-10T06:50:09;21.50;1.00
14924;DHT22;7554;43.600;1.480;2023-05-10T06:52:40;20.90;1.00
14924;DHT22;7554;43.600;1.480;2023-05-10T06:55:08;21.20;1.00
14924;DHT22;7554;43.600;1.480;2023-05-10T06:57:36;20.10;1.00
14924;DHT22;7554;43.600;1.480;2023-05-10T07:00:04;19.70;1.00
14924;DHT22;7554;43.600;1.480;2023-05-10T07:02:31;19.30;1.00
14924;DHT22;7554;43.600;1.480;2023-05-10T07:04:59;19.50;1.00
14924;DHT22;7554;43.600;1.480;2023-05-10T07:07:26;20.20;1.00
14924;DHT22;7554;43.600;1.480;2023-05-10T07:09:55;20.20;1.00
14924;DHT22;7554;43.600;1.480;2023-05-10T07:12:23;20.10;1.00
14924;DHT22;7554;43.600;1.480;2023-05-10T07:14:50;23.30;1.00
14924;DHT22;7554;43.600;1.480;2023-05-10T07:17:18;24.70;1.00
14924;DHT22;7554;43.600;1.480;2023-05-10T07:19:45;22.90;1.00
14924;DHT22;7554;43.600;1.480;2023-05-10T07:22:12;21.30;1.00
14924;DHT22;7554;43.600;1.480;2023-05-10T07:24:40;21.60;1.00
14924;DHT22;7554;43.600;1.480;2023-05-10T07:27:09;23.50;1.00
14924;DHT22;7554;43.600;1.480;2023-05-10T07:29:36;22.30;1.00
14924;DHT22;7554;43.600;1.480;2023-05-10T07:32:04;20.30;1.00
14924;DHT22;7554;43.600;1.480;2023-05-10T07:34:31;19.30;1.00
14924;DHT22;7554;43.600;1.480;2023-05-10T07:36:59;18.80;1.00
14924;DHT22;7554;43.600;1.480;2023-05-10T07:39:26;19.00;1.00
14924;DHT22;7554;43.600;1.480;2023-05-10T07:41:54;18.50;1.00
14924;DHT22;7554;43.600;1.480;2023-05-10T07:44:23;17.80;1.00
14924;DHT22;7554;43.600;1.480;2023-05-10T07:46:50;17.60;1.00
14924;DHT22;7554;43.600;1.480;2023-05-10T07:49:18;17.40;1.00
14924;DHT22;7554;43.600;1.480;2023-05-10T07:51:45;17.20;1.00
14924;DHT22;7554;43.600;1.480;2023-05-10T07:54:13;16.80;1.00
14924;DHT22;7554;43.600;1.480;2023-05-10T07:56:40;16.70;1.00
14924;DHT22;7554;43.600;1.480;2023-05-10T07:59:15;16.60;1.00
14924;DHT22;7554;43.600;1.480;2023-05-10T08:01:44;17.40;1.00
14924;DHT22;7554;43.600;1.480;2023-05-10T08:04:12;21.00;1.00
14924;DHT22;7554;43.600;1.480;2023-05-10T08:06:39;19.80;1.00
14924;DHT22;7554;43.600;1.480;2023-05-10T08:09:06;20.10;1.00
14924;DHT22;7554;43.600;1.480;2023-05-10T08:11:34;20.80;1.00
14924;DHT22;7554;43.600;1.480;2023-05-10T08:14:01;20.60;1.00
14924;DHT22;7554;43.600;1.480;2023-05-10T08:16:28;22.30;1.00
14924;DHT22;7554;43.600;1.480;2023-05-10T08:18:57;27.10;1.00
14924;DHT22;7554;43.600;1.480;2023-05-10T08:21:24;29.20;1.00
14924;DHT22;7554;43.600;1.480;2023-05-10T08:23:52;29.90;1.00
14924;DHT22;7554;43.600;1.480;2023-05-10T08:26:19;27.30;1.00
14924;DHT22;7554;43.600;1.480;2023-05-10T08:28:47;29.80;1.00
14924;DHT22;7554;43.600;1.480;2023-05-10T08:31:15;27.20;1.00
14924;DHT22;7554;43.600;1.480;2023-05-10T08:33:42;23.50;1.00
14924;DHT22;7554;43.600;1.480;2023-05-10T08:36:11;28.00;1.00
14924;DHT22;7554;43.600;1.480;2023-05-10T08:38:39;28.60;1.00
14924;DHT22;7554;43.600;1.480;2023-05-10T08:41:07;25.80;1.00
14924;DHT22;7554;43.600;1.480;2023-05-10T08:43:36;29.50;1.00
14924;DHT22;7554;43.600;1.480;2023-05-10T08:46:05;30.70;1.00
14924;DHT22;7554;43.600;1.480;2023-05-10T08:48:34;31.10;1.00
14924;DHT22;7554;43.600;1.480;2023-05-10T08:51:03;32.30;1.00
14924;DHT22;7554;43.600;1.480;2023-05-10T08:53:33;31.80;1.00
14924;DHT22;7554;43.600;1.480;2023-05-10T08:56:04;27.70;1.00
14924;DHT22;7554;43.600;1.480;2023-05-10T08:58:33;24.00;1.00
14924;DHT22;7554;43.600;1.480;2023-05-10T09:01:01;22.50;1.00
14924;DHT22;7554;43.600;1.480;2023-05-10T09:03:28;23.00;1.00
14924;DHT22;7554;43.600;1.480;2023-05-10T09:05:56;28.50;1.00
14924;DHT22;7554;43.600;1.480;2023-05-10T09:08:24;31.00;1.00
14924;DHT22;7554;43.600;1.480;2023-05-10T09:10:54;32.60;1.00
14924;DHT22;7554;43.600;1.480;2023-05-10T09:13:22;32.40;1.00
14924;DHT22;7554;43.600;1.480;2023-05-10T09:15:51;31.30;1.00
14924;DHT22;7554;43.600;1.480;2023-05-10T09:18:18;26.60;1.00
14924;DHT22;7554;43.600;1.480;2023-05-10T09:20:46;24.40;1.00
14924;DHT22;7554;43.600;1.480;2023-05-10T09:23:13;23.30;1.00
14924;DHT22;7554;43.600;1.480;2023-05-10T09:25:41;25.10;1.00
14924;DHT22;7554;43.600;1.480;2023-05-10T09:28:10;26.70;1.00
14924;DHT22;7554;43.600;1.480;2023-05-10T09:30:38;29.50;1.00
14924;DHT22;7554;43.600;1.480;2023-05-10T09:33:06;30.60;1.00
14924;DHT22;7554;43.600;1.480;2023-05-10T09:35:33;31.00;1.00
14924;DHT22;7554;43.600;1.480;2023-05-10T09:38:03;27.80;1.00
14924;DHT22;7554;43.600;1.480;2023-05-10T09:40:30;24.50;1.00
14924;DHT22;7554;43.600;1.480;2023-05-10T09:43:00;23.20;1.00
14924;DHT22;7554;43.600;1.480;2023-05-10T09:45:30;22.70;1.00
14924;DHT22;7554;43.600;1.480;2023-05-10T09:47:58;22.80;1.00
14924;DHT22;7554;43.600;1.480;2023-05-10T09:50:26;22.60;1.00
14924;DHT22;7554;43.600;1.480;2023-05-10T09:52:56;22.10;1.00
14924;DHT22;7554;43.600;1.480;2023-05-10T09:55:26;22.10;1.00
14924;DHT22;7554;43.600;1.480;2023-05-10T09:57:59;22.00;1.00
14924;DHT22;7554;43.600;1.480;2023-05-10T10:00:33;22.10;1.00
14924;DHT22;7554;43.600;1.480;2023-05-10T10:03:01;21.70;1.00
14924;DHT22;7554;43.600;1.480;2023-05-10T10:05:30;21.60;1.00
14924;DHT22;7554;43.600;1.480;2023-05-10T10:07:58;21.40;1.00
14924;DHT22;7554;43.600;1.480;2023-05-10T10:10:26;21.20;1.00
14924;DHT22;7554;43.600;1.480;2023-05-10T10:12:54;21.70;1.00
14924;DHT22;7554;43.600;1.480;2023-05-10T10:15:22;21.80;1.00
14924;DHT22;7554;43.600;1.480;2023-05-10T10:17:51;22.00;1.00
14924;DHT22;7554;43.600;1.480;2023-05-10T10:20:21;21.90;1.00
14924;DHT22;7554;43.600;1.480;2023-05-10T10:22:49;22.00;1.00
14924;DHT22;7554;43.600;1.480;2023-05-10T10:25:18;22.10;1.00
14924;DHT22;7554;43.600;1.480;2023-05-10T10:27:55;21.60;1.00
14924;DHT22;7554;43.600;1.480;2023-05-10T10:30:27;21.50;1.00
14924;DHT22;7554;43.600;1.480;2023-05-10T10:33:13;21.90;1.00
14924;DHT22;7554;43.600;1.480;2023-05-10T10:35:44;22.20;1.00
14924;DHT22;7554;43.600;1.480;2023-05-10T10:38:12;22.20;1.00
14924;DHT22;7554;43.600;1.480;2023-05-10T10:40:40;21.70;1.00
14924;DHT22;7554;43.600;1.480;2023-05-10T10:43:24;21.60;1.00
14924;DHT22;7554;43.600;1.480;2023-05-10T10:46:10;21.20;1.00
14924;DHT22;7554;43.600;1.480;2023-05-10T10:48:40;20.80;1.00
14924;DHT22;7554;43.600;1.480;2023-05-10T10:51:08;20.70;1.00
14924;DHT22;7554;43.600;1.480;2023-05-10T10:53:37;20.80;1.00
14924;DHT22;7554;43.600;1.480;2023-05-10T10:56:06;21.30;1.00
14924;DHT22;7554;43.600;1.480;2023-05-10T10:58:36;22.20;1.00
14924;DHT22;7554;43.600;1.480;2023-05-10T11:01:12;22.50;1.00
14924;DHT22;7554;43.600;1.480;2023-05-10T11:06:35;23.10;1.00
14924;DHT22;7554;43.600;1.480;2023-05-10T11:09:06;22.00;1.00
14924;DHT22;7554;43.600;1.480;2023-05-10T11:11:35;20.90;1.00
14924;DHT22;7554;43.600;1.480;2023-05-10T11:14:03;18.90;1.00
14924;DHT22;7554;43.600;1.480;2023-05-10T11:16:41;16.80;1.00
14924;DHT22;7554;43.600;1.480;2023-05-10T11:19:11;16.10;99.90
14924;DHT22;7554;43.600;1.480;2023-05-10T11:21:46;16.50;1.00
14924;DHT22;7554;43.600;1.480;2023-05-10T11:24:14;16.80;99.90
14924;DHT22;7554;43.600;1.480;2023-05-10T11:26:42;17.40;99.90
14924;DHT22;7554;43.600;1.480;2023-05-10T11:29:10;17.30;1.00
14924;DHT22;7554;43.600;1.480;2023-05-10T11:31:42;16.80;1.00
14924;DHT22;7554;43.600;1.480;2023-05-10T11:34:13;16.40;1.00
14924;DHT22;7554;43.600;1.480;2023-05-10T11:36:51;16.00;1.00
14924;DHT22;7554;43.600;1.480;2023-05-10T11:39:19;16.30;1.00
14924;DHT22;7554;43.600;1.480;2023-05-10T11:41:49;16.50;1.00
14924;DHT22;7554;43.600;1.480;2023-05-10T11:44:16;16.70;1.00
14924;DHT22;7554;43.600;1.480;2023-05-10T11:46:43;16.90;1.00
14924;DHT22;7554;43.600;1.480;2023-05-10T11:49:12;17.30;99.90
14924;DHT22;7554;43.600;1.480;2023-05-10T11:51:39;17.50;99.90
14924;DHT22;7554;43.600;1.480;2023-05-10T11:54:10;17.70;99.90
14924;DHT22;7554;43.600;1.480;2023-05-10T11:56:38;17.80;1.00
14924;DHT22;7554;43.600;1.480;2023-05-10T11:59:06;18.50;1.00
14924;DHT22;7554;43.600;1.480;2023-05-10T12:01:33;18.80;99.90
14924;DHT22;7554;43.600;1.480;2023-05-10T12:04:01;19.30;1.00
14924;DHT22;7554;43.600;1.480;2023-05-10T12:06:31;19.80;99.90
14924;DHT22;7554;43.600;1.480;2023-05-10T12:09:01;19.90;3.40
14924;DHT22;7554;43.600;1.480;2023-05-10T12:11:32;19.90;1.00
14924;DHT22;7554;43.600;1.480;2023-05-10T12:14:04;19.80;1.00
14924;DHT22;7554;43.600;1.480;2023-05-10T12:16:32;19.90;1.00
14924;DHT22;7554;43.600;1.480;2023-05-10T12:19:00;19.70;1.00
14924;DHT22;7554;43.600;1.480;2023-05-10T12:21:29;19.50;1.00
14924;DHT22;7554;43.600;1.480;2023-05-10T12:24:01;19.00;1.00
14924;DHT22;7554;43.600;1.480;2023-05-10T12:26:28;18.90;1.00
14924;DHT22;7554;43.600;1.480;2023-05-10T12:29:11;18.80;1.00
14924;DHT22;7554;43.600;1.480;2023-05-10T12:31:52;18.90;1.00
14924;DHT22;7554;43.600;1.480;2023-05-10T12:34:24;19.40;1.00
14924;DHT22;7554;43.600;1.480;2023-05-10T12:36:54;19.30;1.00
14924;DHT22;7554;43.600;1.480;2023-05-10T12:39:21;19.40;1.00
14924;DHT22;7554;43.600;1.480;2023-05-10T12:41:49;19.40;1.00
14924;DHT22;7554;43.600;1.480;2023-05-10T12:44:16;19.30;1.00
14924;DHT22;7554;43.600;1.480;2023-05-10T12:46:44;19.50;1.00
14924;DHT22;7554;43.600;1.480;2023-05-10T12:49:11;19.60;1.00
14924;DHT22;7554;43.600;1.480;2023-05-10T12:51:38;19.60;1.00
14924;DHT22;7554;43.600;1.480;2023-05-10T12:54:07;19.90;1.00
14924;DHT22;7554;43.600;1.480;2023-05-10T12:56:34;20.10;1.00
14924;DHT22;7554;43.600;1.480;2023-05-10T12:59:02;20.30;1.00
14924;DHT22;7554;43.600;1.480;2023-05-10T13:01:30;20.00;1.00
14924;DHT22;7554;43.600;1.480;2023-05-10T13:03:57;20.50;1.00
14924;DHT22;7554;43.600;1.480;2023-05-10T13:06:25;20.80;1.00
14924;DHT22;7554;43.600;1.480;2023-05-10T13:08:53;20.90;1.00
14924;DHT22;7554;43.600;1.480;2023-05-10T13:11:21;20.80;1.00
14924;DHT22;7554;43.600;1.480;2023-05-10T13:13:49;20.70;1.00
14924;DHT22;7554;43.600;1.480;2023-05-10T13:16:16;20.70;1.00
14924;DHT22;7554;43.600;1.480;2023-05-10T13:18:43;20.80;1.00
14924;DHT22;7554;43.600;1.480;2023-05-10T13:21:11;20.40;1.00
14924;DHT22;7554;43.600;1.480;2023-05-10T13:23:38;19.90;1.00
14924;DHT22;7554;43.600;1.480;2023-05-10T13:26:05;19.90;1.00
14924;DHT22;7554;43.600;1.480;2023-05-10T13:28:34;20.00;1.00
14924;DHT22;7554;43.600;1.480;2023-05-10T13:31:01;20.10;1.00
14924;DHT22;7554;43.600;1.480;2023-05-10T13:33:28;20.10;1.00
14924;DHT22;7554;43.600;1.480;2023-05-10T13:35:55;20.10;1.00
14924;DHT22;7554;43.600;1.480;2023-05-10T13:38:23;20.00;1.00
14924;DHT22;7554;43.600;1.480;2023-05-10T13:40:50;20.00;1.00
14924;DHT22;7554;43.600;1.480;2023-05-10T13:43:18;20.30;1.00
14924;DHT22;7554;43.600;1.480;2023-05-10T13:45:47;20.80;1.00
14924;DHT22;7554;43.600;1.480;2023-05-10T13:48:14;21.10;1.00
14924;DHT22;7554;43.600;1.480;2023-05-10T13:50:42;21.00;1.00
14924;DHT22;7554;43.600;1.480;2023-05-10T13:53:10;20.50;1.00
14924;DHT22;7554;43.600;1.480;2023-05-10T13:55:37;19.80;1.00
14924;DHT22;7554;43.600;1.480;2023-05-10T13:58:04;19.80;1.00
14924;DHT22;7554;43.600;1.480;2023-05-10T14:00:32;20.00;1.00
14924;DHT22;7554;43.600;1.480;2023-05-10T14:03:00;20.60;1.00
14924;DHT22;7554;43.600;1.480;2023-05-10T14:05:28;20.60;1.00
14924;DHT22;7554;43.600;1.480;2023-05-10T14:07:55;19.70;1.00
14924;DHT22;7554;43.600;1.480;2023-05-10T14:10:22;19.10;1.00
14924;DHT22;7554;43.600;1.480;2023-05-10T14:12:50;18.90;1.00
14924;DHT22;7554;43.600;1.480;2023-05-10T14:15:17;19.20;1.00
14924;DHT22;7554;43.600;1.480;2023-05-10T14:17:44;19.50;1.00
14924;DHT22;7554;43.600;1.480;2023-05-10T14:20:13;19.50;1.00
14924;DHT22;7554;43.600;1.480;2023-05-10T14:22:40;19.50;1.00
14924;DHT22;7554;43.600;1.480;2023-05-10T14:25:08;19.60;1.00
14924;DHT22;7554;43.600;1.480;2023-05-10T14:27:36;19.90;1.00
14924;DHT22;7554;43.600;1.480;2023-05-10T14:30:04;19.80;1.00
14924;DHT22;7554;43.600;1.480;2023-05-10T14:32:31;20.10;1.00
14924;DHT22;7554;43.600;1.480;2023-05-10T14:34:59;20.30;1.00
14924;DHT22;7554;43.600;1.480;2023-05-10T14:37:28;20.40;1.00
14924;DHT22;7554;43.600;1.480;2023-05-10T14:39:55;20.00;1.00
14924;DHT22;7554;43.600;1.480;2023-05-10T14:42:22;19.80;1.00
14924;DHT22;7554;43.600;1.480;2023-05-10T14:44:50;19.80;1.00
14924;DHT22;7554;43.600;1.480;2023-05-10T14:47:17;20.20;1.00
14924;DHT22;7554;43.600;1.480;2023-05-10T14:49:44;20.60;1.00
14924;DHT22;7554;43.600;1.480;2023-05-10T14:52:11;20.50;1.00
14924;DHT22;7554;43.600;1.480;2023-05-10T14:54:41;20.20;1.00
14924;DHT22;7554;43.600;1.480;2023-05-10T14:57:08;20.00;1.00
14924;DHT22;7554;43.600;1.480;2023-05-10T14:59:35;20.00;1.00
14924;DHT22;7554;43.600;1.480;2023-05-10T15:02:03;20.20;1.00
14924;DHT22;7554;43.600;1.480;2023-05-10T15:04:31;20.30;1.00
14924;DHT22;7554;43.600;1.480;2023-05-10T15:06:58;20.60;1.00
14924;DHT22;7554;43.600;1.480;2023-05-10T15:09:26;20.80;1.00
14924;DHT22;7554;43.600;1.480;2023-05-10T15:11:55;20.70;1.00
14924;DHT22;7554;43.600;1.480;2023-05-10T15:14:22;20.70;1.00
14924;DHT22;7554;43.600;1.480;2023-05-10T15:16:50;20.80;1.00
14924;DHT22;7554;43.600;1.480;2023-05-10T15:19:17;20.70;1.00
14924;DHT22;7554;43.600;1.480;2023-05-10T15:21:45;20.50;1.00
14924;DHT22;7554;43.600;1.480;2023-05-10T15:24:13;20.50;1.00
14924;DHT22;7554;43.600;1.480;2023-05-10T15:26:40;20.10;1.00
14924;DHT22;7554;43.600;1.480;2023-05-10T15:29:09;20.00;1.00
14924;DHT22;7554;43.600;1.480;2023-05-10T15:31:36;19.80;1.00
14924;DHT22;7554;43.600;1.480;2023-05-10T15:34:05;19.20;1.00
14924;DHT22;7554;43.600;1.480;2023-05-10T15:36:32;19.10;1.00
14924;DHT22;7554;43.600;1.480;2023-05-10T15:38:59;18.90;1.00
14924;DHT22;7554;43.600;1.480;2023-05-10T15:41:27;18.90;1.00
14924;DHT22;7554;43.600;1.480;2023-05-10T15:43:54;18.70;1.00
14924;DHT22;7554;43.600;1.480;2023-05-10T15:46:23;18.60;1.00
14924;DHT22;7554;43.600;1.480;2023-05-10T15:48:50;19.00;1.00
14924;DHT22;7554;43.600;1.480;2023-05-10T15:51:17;19.00;1.00
14924;DHT22;7554;43.600;1.480;2023-05-10T15:53:45;19.00;1.00
14924;DHT22;7554;43.600;1.480;2023-05-10T15:56:12;18.90;1.00
14924;DHT22;7554;43.600;1.480;2023-05-10T15:58:40;18.70;1.00
14924;DHT22;7554;43.600;1.480;2023-05-10T16:01:09;18.80;1.00
14924;DHT22;7554;43.600;1.480;2023-05-10T16:03:39;18.90;1.00
14924;DHT22;7554;43.600;1.480;2023-05-10T16:06:06;19.10;1.00
14924;DHT22;7554;43.600;1.480;2023-05-10T16:08:33;18.90;1.00
14924;DHT22;7554;43.600;1.480;2023-05-10T16:11:01;18.90;1.00
14924;DHT22;7554;43.600;1.480;2023-05-10T16:13:29;18.50;1.00